This is the latest recevied weather packets stored in our database for station/object IZ0CGP. If no packets are shown the sender has not sent any weather packets the latest 10 day(s).
| Time | Temp. | Humidity | Pressure | Rain* | Wind** | Luminosity | Snow |
|---|---|---|---|---|---|---|---|
| 1787620050 | 23.33° C | 73% | 1012.7 hPa | 0 mm | - | - | - |
| 1787618245 | 21.67° C | 79% | 1012.7 hPa | 0 mm | - | - | - |
| 1787616438 | 22.78° C | 73% | 1012.7 hPa | 0 mm | - | - | - |
| 1787614633 | 22.22° C | 74% | 1011.7 hPa | 0 mm | - | - | - |
| 1787612815 | 22.78° C | 74% | 1011.7 hPa | 0 mm | - | - | - |
| 1787611006 | 23.33° C | 72% | 1012.7 hPa | 0 mm | - | - | - |
| 1787609193 | 24.44° C | 69% | 1012.7 hPa | 0 mm | - | - | - |
| 1787607390 | 25° C | 68% | 1012.7 hPa | 0 mm | - | - | - |
| 1787605568 | 25° C | 67% | 1013.7 hPa | 0 mm | - | - | - |
| 1787603765 | 25° C | 67% | 1014.7 hPa | 0 mm | - | - | - |
| 1787601955 | 25.56° C | 65% | 1015.7 hPa | 0 mm | - | - | - |
| 1787600147 | 26.67° C | 61% | 1015.7 hPa | 0 mm | - | - | - |
| 1787598343 | 27.22° C | 57% | 1015.7 hPa | 0 mm | - | - | - |
| 1787596535 | 28.33° C | 54% | 1015.7 hPa | 0 mm | - | - | - |
| 1787594719 | 28.89° C | 50% | 1014.7 hPa | 0 mm | - | - | - |
| 1787592918 | 30.56° C | 46% | 1014.7 hPa | 0 mm | - | - | - |
| 1787591113 | 31.67° C | 45% | 1014.7 hPa | 0 mm | - | - | - |
| 1787589310 | 31.67° C | 41% | 1014.7 hPa | 0 mm | - | - | - |
| 1787587507 | 32.78° C | 40% | 1014.7 hPa | 0 mm | - | - | - |
| 1787585707 | 33.33° C | 40% | 1013.7 hPa | 0 mm | - | - | - |
| 1787583907 | 33.33° C | 40% | 1014.7 hPa | 0 mm | - | - | - |
| 1787582100 | 33.89° C | 41% | 1014.7 hPa | 0 mm | - | - | - |
| 1787580297 | 34.44° C | 38% | 1014.7 hPa | 0 mm | - | - | - |
| 1787578498 | 35.56° C | 29% | 1014.7 hPa | 0 mm | - | - | - |
| 1787576689 | 34.44° C | 29% | 1014.7 hPa | 0 mm | - | - | - |
* Rain latest hour (hover to see other rain measurements)
** Current wind speed in m/s (hover to see current wind gust speed)